Time;durP1;ratioP1;P1;durP2;ratioP2;P2;SDS_P1;SDS_P2;PMS_P1;PMS_P2;Temp;Humidity;BMP_temperature;BMP_pressure;BME280_temperature;BME280_humidity;BME280_pressure;Samples;Min_cycle;Max_cycle;Signal;HPM_P1;HPM_P2
2022/02/01 00:01:41;;;;;;;4.15;3.15;;;;;;;;;;7330182;19;153950;-15
2022/02/01 00:04:18;;;;;;;3.33;2.70;;;;;;;;;;7332113;19;153565;-14
2022/02/01 00:06:59;;;;;;;7.20;5.18;;;;;;;;;;7327940;19;161951;-26
2022/02/01 00:09:38;;;;;;;7.15;5.53;;;;;;;;;;7326926;19;162626;-14
2022/02/01 00:12:20;;;;;;;8.65;4.90;;;;;;;;;;7329705;19;153959;-14
2022/02/01 08:42:16;;;;;;;5.32;1.98;;;;;;;;;;7368079;19;132600;-15
2022/02/01 08:44:47;;;;;;;4.30;1.83;;;;;;;;;;7363945;19;153691;-15
2022/02/01 08:47:19;;;;;;;2.25;1.50;;;;;;;;;;7367845;19;161757;-15
2022/02/01 08:49:50;;;;;;;4.15;1.50;;;;;;;;;;7363348;19;162713;-16
2022/02/01 08:52:29;;;;;;;1.90;1.20;;;;;;;;;;7364191;19;153883;-16
2022/02/01 08:55:02;;;;;;;4.15;1.60;;;;;;;;;;7364114;19;153518;-16
2022/02/01 08:57:36;;;;;;;1.42;1.33;;;;;;;;;;7363626;19;161799;-15
2022/02/01 09:00:13;;;;;;;2.03;1.50;;;;;;;;;;7363489;19;162429;-15
2022/02/01 09:02:45;;;;;;;1.30;1.20;;;;;;;;;;7366491;19;154076;-15
2022/02/01 09:05:16;;;;;;;4.30;1.70;;;;;;;;;;7367675;19;153575;-15
2022/02/01 09:07:47;;;;;;;5.78;1.17;;;;;;;;;;7362478;19;161958;-15
2022/02/01 09:10:19;;;;;;;2.25;1.45;;;;;;;;;;7362895;19;162377;-15
2022/02/01 09:12:53;;;;;;;3.42;1.52;;;;;;;;;;7364938;19;153929;-15
2022/02/01 09:15:26;;;;;;;4.45;2.17;;;;;;;;;;7366635;19;153498;-15
2022/02/01 09:17:59;;;;;;;2.08;1.63;;;;;;;;;;7364333;19;162006;-15
2022/02/01 09:20:32;;;;;;;3.03;1.73;;;;;;;;;;7364853;19;162686;-15
2022/02/01 09:23:03;;;;;;;1.40;1.20;;;;;;;;;;7363679;19;153907;-15
2022/02/01 09:25:35;;;;;;;1.75;1.40;;;;;;;;;;7363394;19;153517;-15
2022/02/01 09:28:09;;;;;;;3.42;1.60;;;;;;;;;;7362951;19;161828;-15
2022/02/01 09:30:40;;;;;;;2.83;1.20;;;;;;;;;;7362552;19;162294;-15
2022/02/01 09:33:12;;;;;;;1.48;1.27;;;;;;;;;;7363424;19;154131;-15
2022/02/01 09:35:43;;;;;;;2.80;1.20;;;;;;;;;;7363377;19;153465;-18
2022/02/01 09:38:17;;;;;;;3.85;1.38;;;;;;;;;;7362804;19;162043;-15
2022/02/01 09:40:49;;;;;;;1.40;1.30;;;;;;;;;;7360926;19;162556;-15
2022/02/01 09:43:23;;;;;;;1.90;1.25;;;;;;;;;;7331394;19;154151;-15
2022/02/01 09:45:56;;;;;;;1.83;1.25;;;;;;;;;;7334623;19;153828;-15
2022/02/01 09:48:43;;;;;;;2.90;1.40;;;;;;;;;;7336077;19;161777;-15
2022/02/01 09:51:16;;;;;;;1.92;1.20;;;;;;;;;;7331449;19;162255;-15
2022/02/01 09:53:47;;;;;;;1.60;1.17;;;;;;;;;;7332738;19;153896;-15
2022/02/01 09:56:19;;;;;;;2.17;1.30;;;;;;;;;;7333562;19;153549;-15
2022/02/01 09:58:55;;;;;;;2.08;1.13;;;;;;;;;;7334794;19;161740;-15
2022/02/01 10:01:31;;;;;;;1.30;1.20;;;;;;;;;;7333704;19;162326;-15
2022/02/01 10:04:04;;;;;;;1.70;1.20;;;;;;;;;;7334824;19;153962;-13
2022/02/01 10:06:44;;;;;;;1.23;1.13;;;;;;;;;;7336652;19;153578;-12
2022/02/01 10:09:35;;;;;;;1.20;1.10;;;;;;;;;;7335777;19;161763;-14
2022/02/01 10:12:18;;;;;;;1.35;1.05;;;;;;;;;;7330603;19;162599;-13
2022/02/01 10:14:59;;;;;;;2.08;1.20;;;;;;;;;;7332940;19;153937;-20
2022/02/01 10:17:39;;;;;;;0.93;0.88;;;;;;;;;;7337111;19;153537;-13
2022/02/01 10:20:11;;;;;;;1.20;1.00;;;;;;;;;;7332438;19;161946;-13
2022/02/01 10:22:44;;;;;;;0.93;0.93;;;;;;;;;;7332153;19;162070;-13
2022/02/01 10:25:23;;;;;;;;;;;;;;;;;;7333259;19;153964;-13
2022/02/01 10:27:59;;;;;;;1.20;1.00;;;;;;;;;;7332753;19;153350;-13
2022/02/01 10:30:50;;;;;;;1.33;1.23;;;;;;;;;;7332808;19;161905;-13
2022/02/01 10:33:55;;;;;;;2.25;1.40;;;;;;;;;;7330818;19;162391;-13
2022/02/01 10:36:37;;;;;;;2.13;1.33;;;;;;;;;;7332406;19;154040;-14
2022/02/01 10:39:20;;;;;;;1.00;0.90;;;;;;;;;;7332314;19;153924;-13
2022/02/01 10:41:56;;;;;;;1.15;1.05;;;;;;;;;;7329259;19;163133;-13
2022/02/01 10:44:39;;;;;;;1.20;1.10;;;;;;;;;;7331657;19;162601;-21
2022/02/01 10:47:15;;;;;;;1.02;1.02;;;;;;;;;;7334342;19;153922;-13
2022/02/01 10:49:58;;;;;;;1.23;1.13;;;;;;;;;;7331975;19;153721;-13
2022/02/01 10:52:29;;;;;;;1.60;1.38;;;;;;;;;;7331388;19;161968;-13
2022/02/01 10:55:00;;;;;;;2.30;1.25;;;;;;;;;;7333113;19;162482;-15
2022/02/01 10:57:32;;;;;;;1.75;1.40;;;;;;;;;;7331767;19;153965;-14
2022/02/01 11:00:04;;;;;;;2.28;1.30;;;;;;;;;;7331679;19;153803;-14
2022/02/01 11:02:42;;;;;;;1.80;1.23;;;;;;;;;;7334619;19;161796;-14
2022/02/01 11:05:16;;;;;;;1.98;1.25;;;;;;;;;;7330339;19;162554;-14
2022/02/01 11:08:08;;;;;;;1.40;1.25;;;;;;;;;;7331789;19;153974;-14
2022/02/01 11:10:40;;;;;;;1.30;1.20;;;;;;;;;;7331591;19;153905;-14
2022/02/01 11:13:12;;;;;;;1.92;1.10;;;;;;;;;;7327397;19;161852;-14
2022/02/01 11:15:58;;;;;;;1.38;1.25;;;;;;;;;;7330789;19;162359;-14
2022/02/01 11:18:33;;;;;;;1.23;1.13;;;;;;;;;;7331170;19;154102;-13
2022/02/01 11:21:12;;;;;;;2.72;1.20;;;;;;;;;;7330904;19;153418;-16
2022/02/01 11:23:52;;;;;;;1.13;1.02;;;;;;;;;;7329413;19;162036;-13
2022/02/01 11:26:32;;;;;;;2.15;1.17;;;;;;;;;;7330615;19;162357;-13
2022/02/01 11:29:30;;;;;;;1.00;1.00;;;;;;;;;;7330858;19;153915;-15
2022/02/01 11:32:05;;;;;;;1.33;1.20;;;;;;;;;;7332701;19;153502;-13
2022/02/01 11:34:48;;;;;;;1.58;1.00;;;;;;;;;;7330227;19;161847;-14
2022/02/01 11:37:28;;;;;;;1.20;1.10;;;;;;;;;;7328926;19;162764;-14
2022/02/01 11:40:00;;;;;;;1.20;1.10;;;;;;;;;;7329805;19;153795;-14
2022/02/01 11:42:35;;;;;;;1.20;1.10;;;;;;;;;;7330413;19;153550;-14
2022/02/01 11:45:09;;;;;;;2.33;1.00;;;;;;;;;;7329941;19;161818;-14
2022/02/01 11:47:43;;;;;;;1.95;1.17;;;;;;;;;;7333347;19;162388;-14
2022/02/01 11:50:19;;;;;;;1.17;1.00;;;;;;;;;;7330043;19;153905;-14
2022/02/01 11:52:53;;;;;;;1.50;1.13;;;;;;;;;;7328561;19;153540;-14
2022/02/01 11:55:31;;;;;;;1.00;1.00;;;;;;;;;;7329373;19;162157;-14
2022/02/01 11:58:05;;;;;;;1.08;0.98;;;;;;;;;;7329643;19;162440;-14
2022/02/01 12:00:41;;;;;;;1.05;0.95;;;;;;;;;;7331601;19;154231;-17
2022/02/01 12:03:21;;;;;;;0.93;0.93;;;;;;;;;;7334229;19;153665;-13
2022/02/01 12:05:59;;;;;;;1.30;0.98;;;;;;;;;;7328779;19;161733;-14
2022/02/01 12:08:32;;;;;;;1.20;1.10;;;;;;;;;;7329365;19;162410;-14
2022/02/01 12:11:05;;;;;;;1.55;1.00;;;;;;;;;;7329354;19;154150;-14
2022/02/01 12:13:38;;;;;;;1.50;1.17;;;;;;;;;;7327209;19;153455;-13
2022/02/01 12:16:12;;;;;;;1.70;1.25;;;;;;;;;;7330385;19;161920;-13
2022/02/01 12:18:53;;;;;;;1.05;0.95;;;;;;;;;;7328534;19;162409;-13
2022/02/01 12:21:35;;;;;;;1.25;1.05;;;;;;;;;;7329090;19;153966;-13
2022/02/01 12:24:08;;;;;;;1.50;1.40;;;;;;;;;;7329344;19;153577;-13
2022/02/01 12:26:41;;;;;;;0.80;0.80;;;;;;;;;;7331160;19;162018;-14
2022/02/01 12:29:14;;;;;;;1.00;0.98;;;;;;;;;;7333146;19;162371;-14
2022/02/01 12:31:47;;;;;;;1.20;1.10;;;;;;;;;;7331388;19;153976;-14
2022/02/01 12:34:19;;;;;;;;;;;;;;;;;;7326695;19;153530;-14
2022/02/01 12:36:57;;;;;;;1.10;0.95;;;;;;;;;;7328351;19;162424;-14
2022/02/01 12:39:32;;;;;;;0.90;0.90;;;;;;;;;;7327619;19;162348;-21
2022/02/01 12:42:12;;;;;;;1.77;1.55;;;;;;;;;;7325743;19;154065;-15
2022/02/01 12:47:30;;;;;;;1.90;1.25;;;;;;;;;;7332334;19;161830;-14
2022/02/01 12:50:15;;;;;;;3.28;1.13;;;;;;;;;;7327901;19;162660;-15
2022/02/01 12:52:49;;;;;;;1.00;0.90;;;;;;;;;;7327726;19;154036;-14
2022/02/01 12:55:21;;;;;;;5.13;1.20;;;;;;;;;;7327774;19;153955;-15
2022/02/01 12:58:16;;;;;;;2.53;0.80;;;;;;;;;;7324392;19;162042;-15
2022/02/01 13:00:53;;;;;;;1.80;0.80;;;;;;;;;;7325610;19;162383;-15
2022/02/01 13:03:24;;;;;;;;;;;;;;;;;;7323972;19;156329;-14
2022/02/01 13:06:01;;;;;;;2.30;1.15;;;;;;;;;;7323559;19;153097;-14
2022/02/01 13:12:58;;;;;;;1.20;1.10;;;;;;;;;;7327106;19;162321;-15
2022/02/01 13:17:15;;;;;;;2.30;1.00;;;;;;;;;;7331967;19;153563;-15
2022/02/01 13:20:07;;;;;;;1.75;1.02;;;;;;;;;;7337312;19;161772;-13
2022/02/01 13:23:04;;;;;;;1.48;1.00;;;;;;;;;;7335734;19;162628;-15
2022/02/01 13:25:40;;;;;;;1.20;1.10;;;;;;;;;;7332287;19;154101;-14
2022/02/01 13:28:13;;;;;;;1.65;1.15;;;;;;;;;;7338322;19;153753;-13
2022/02/01 13:30:45;;;;;;;;;;;;;;;;;;7330103;19;162009;-14
2022/02/01 13:33:17;;;;;;;2.30;1.20;;;;;;;;;;7336009;19;162628;-15
2022/02/01 13:35:52;;;;;;;1.17;0.85;;;;;;;;;;7336276;19;154253;-13
2022/02/01 13:38:28;;;;;;;1.73;1.20;;;;;;;;;;7334115;19;153594;-13
2022/02/01 13:41:11;;;;;;;1.52;1.20;;;;;;;;;;7331608;19;162077;-13
2022/02/01 13:43:49;;;;;;;1.20;0.90;;;;;;;;;;7336663;19;162372;-15
2022/02/01 13:46:21;;;;;;;2.03;1.20;;;;;;;;;;7336372;19;154087;-13
2022/02/01 13:49:01;;;;;;;0.90;0.90;;;;;;;;;;7336519;19;153624;-15
2022/02/01 13:51:33;;;;;;;0.80;0.80;;;;;;;;;;7335642;19;161778;-17
2022/02/01 13:54:07;;;;;;;1.52;1.08;;;;;;;;;;7335124;19;162337;-15
2022/02/01 13:56:45;;;;;;;0.80;0.80;;;;;;;;;;7335892;19;153959;-13
2022/02/01 13:59:19;;;;;;;1.55;1.10;;;;;;;;;;7332842;19;153640;-13
2022/02/01 14:02:02;;;;;;;1.92;1.30;;;;;;;;;;7335272;19;161997;-14
2022/02/01 14:04:40;;;;;;;1.27;0.93;;;;;;;;;;7333928;19;162406;-13
2022/02/01 14:07:18;;;;;;;1.42;0.90;;;;;;;;;;7335308;19;154062;-14
2022/02/01 14:10:03;;;;;;;1.02;0.90;;;;;;;;;;7335219;19;153796;-14
2022/02/01 14:26:53;;;;;;;1.05;1.00;;;;;;;;;;7331542;19;162569;-15
2022/02/01 14:32:44;;;;;;;2.40;1.30;;;;;;;;;;7335933;19;153806;-14
2022/02/01 14:35:10;;;;;;;3.42;1.30;;;;;;;;;;7328862;19;161776;-15
2022/02/01 14:37:56;;;;;;;3.08;1.63;;;;;;;;;;7331812;19;162764;-15
2022/02/01 14:43:39;;;;;;;4.70;1.30;;;;;;;;;;7332243;19;154077;-14
2022/02/01 14:46:13;;;;;;;4.45;1.20;;;;;;;;;;7333693;19;162114;-15
2022/02/01 14:48:44;;;;;;;2.92;1.30;;;;;;;;;;7330541;19;162816;-15
2022/02/01 14:51:15;;;;;;;2.03;1.20;;;;;;;;;;7330917;19;154020;-14
2022/02/01 14:53:47;;;;;;;2.95;1.30;;;;;;;;;;7331412;19;153296;-15
2022/02/01 14:56:24;;;;;;;1.88;1.15;;;;;;;;;;7331390;19;161821;-14
2022/02/01 15:07:14;;;;;;;1.60;1.10;;;;;;;;;;7330736;19;162187;-14
2022/02/01 15:12:42;;;;;;;1.30;1.13;;;;;;;;;;7331414;19;153952;-13
2022/02/01 15:15:14;;;;;;;2.75;1.30;;;;;;;;;;7329690;19;153832;-15
2022/02/01 15:17:48;;;;;;;1.27;0.90;;;;;;;;;;7331252;19;161926;-15
2022/02/01 15:20:19;;;;;;;2.72;1.33;;;;;;;;;;7329706;19;162635;-15
2022/02/01 15:22:51;;;;;;;3.78;1.30;;;;;;;;;;7331364;19;154335;-14
2022/02/01 15:25:22;;;;;;;3.17;1.30;;;;;;;;;;7331109;19;153643;-15
2022/02/01 15:27:53;;;;;;;1.30;1.20;;;;;;;;;;7329380;19;161785;-15
2022/02/01 15:30:26;;;;;;;1.15;0.80;;;;;;;;;;7330538;19;162488;-15
2022/02/01 15:33:00;;;;;;;3.65;1.38;;;;;;;;;;7330830;19;154071;-15
2022/02/01 15:35:31;;;;;;;3.80;0.98;;;;;;;;;;7328861;19;153536;-14
2022/02/01 15:38:03;;;;;;;1.52;0.85;;;;;;;;;;7330646;19;162194;-15
2022/02/01 15:57:20;;;;;;;;;;;;;;;;;;7328723;19;153702;-15
2022/02/01 15:59:54;;;;;;;1.45;1.23;;;;;;;;;;7329982;19;162043;-14
2022/02/01 16:02:31;;;;;;;3.22;1.50;;;;;;;;;;7329882;19;162379;-15
2022/02/01 16:05:05;;;;;;;1.70;1.30;;;;;;;;;;7330143;19;153975;-15
2022/02/01 16:07:39;;;;;;;1.60;1.10;;;;;;;;;;7329986;19;153570;-14
2022/02/01 16:10:26;;;;;;;2.05;1.20;;;;;;;;;;7329635;19;161816;-15
2022/02/01 16:13:03;;;;;;;2.72;1.10;;;;;;;;;;7328222;19;162127;-14
2022/02/01 16:15:34;;;;;;;3.65;1.17;;;;;;;;;;7328234;19;154021;-14
2022/02/01 16:18:06;;;;;;;1.60;0.90;;;;;;;;;;7329621;19;153583;-15
2022/02/01 16:20:42;;;;;;;1.90;1.08;;;;;;;;;;7328078;19;161457;-14
2022/02/01 16:23:15;;;;;;;1.40;1.08;;;;;;;;;;7328148;19;162384;-15
2022/02/01 16:25:46;;;;;;;1.08;0.98;;;;;;;;;;7329785;19;153954;-14
2022/02/01 16:28:17;;;;;;;4.00;1.20;;;;;;;;;;7329375;19;153512;-15
2022/02/01 16:30:49;;;;;;;1.33;1.00;;;;;;;;;;7329014;19;162030;-15
2022/02/01 16:33:20;;;;;;;1.48;0.90;;;;;;;;;;7328858;19;162802;-15
2022/02/01 16:35:54;;;;;;;1.08;0.90;;;;;;;;;;7327506;19;153988;-14
2022/02/01 16:38:28;;;;;;;1.45;1.23;;;;;;;;;;7329030;19;153631;-15
2022/02/01 16:41:01;;;;;;;1.33;0.90;;;;;;;;;;7327229;19;161962;-15
2022/02/01 16:43:35;;;;;;;2.70;1.08;;;;;;;;;;7328383;19;162370;-14
2022/02/01 16:46:07;;;;;;;2.10;1.13;;;;;;;;;;7328738;19;154082;-15
2022/02/01 16:48:39;;;;;;;1.80;0.90;;;;;;;;;;7328176;19;153522;-15
2022/02/01 16:51:13;;;;;;;1.80;1.05;;;;;;;;;;7328069;19;161921;-15
2022/02/01 16:53:48;;;;;;;2.78;1.27;;;;;;;;;;7335185;19;162750;-15
2022/02/01 16:56:24;;;;;;;1.15;0.98;;;;;;;;;;7332547;19;154134;-15
2022/02/01 16:59:12;;;;;;;4.60;1.00;;;;;;;;;;7335051;19;153324;-15
2022/02/01 17:01:44;;;;;;;1.90;0.90;;;;;;;;;;7333230;19;161816;-16
2022/02/01 17:04:15;;;;;;;1.52;1.13;;;;;;;;;;7334526;19;162556;-15
2022/02/01 17:06:49;;;;;;;1.63;0.90;;;;;;;;;;7334409;19;153921;-22
2022/02/01 17:09:23;;;;;;;2.08;1.05;;;;;;;;;;7334792;19;153815;-16
2022/02/01 17:12:07;;;;;;;2.67;1.10;;;;;;;;;;7334317;19;162072;-15
2022/02/01 17:15:01;;;;;;;;;;;;;;;;;;7333348;19;162490;-16
2022/02/01 17:17:59;;;;;;;1.35;0.80;;;;;;;;;;7334529;19;154293;-15
2022/02/01 17:23:16;;;;;;;2.65;1.00;;;;;;;;;;7333690;19;161982;-14
2022/02/01 17:25:48;;;;;;;1.67;1.00;;;;;;;;;;7333416;19;162469;-15
2022/02/01 17:28:19;;;;;;;0.77;0.73;;;;;;;;;;7334109;19;153983;-15
2022/02/01 17:30:50;;;;;;;1.83;0.80;;;;;;;;;;7334051;19;153582;-14
2022/02/01 17:33:22;;;;;;;1.75;1.40;;;;;;;;;;7333794;19;162114;-14
2022/02/01 17:35:53;;;;;;;0.95;0.90;;;;;;;;;;7333319;19;162374;-14
2022/02/01 17:38:27;;;;;;;1.38;1.00;;;;;;;;;;7334594;19;154203;-14
2022/02/01 17:40:59;;;;;;;1.40;0.98;;;;;;;;;;7333218;19;153495;-15
2022/02/01 17:43:30;;;;;;;1.53;1.00;;;;;;;;;;7333792;19;162073;-14
2022/02/01 17:46:02;;;;;;;1.80;0.90;;;;;;;;;;7333835;19;162627;-15
2022/02/01 17:48:34;;;;;;;0.85;0.70;;;;;;;;;;7334193;19;154422;-14
2022/02/01 17:51:12;;;;;;;1.10;1.00;;;;;;;;;;7334038;19;154045;-14
2022/02/01 17:54:04;;;;;;;0.98;0.80;;;;;;;;;;7333659;19;161975;-14
2022/02/01 17:56:36;;;;;;;2.58;0.98;;;;;;;;;;7332177;19;162314;-14
2022/02/01 17:59:07;;;;;;;1.17;1.00;;;;;;;;;;7334078;19;154195;-15
2022/02/01 18:01:39;;;;;;;1.13;0.80;;;;;;;;;;7333805;19;153618;-14
2022/02/01 18:04:10;;;;;;;1.83;1.08;;;;;;;;;;7332557;19;161848;-16
2022/02/01 18:06:41;;;;;;;2.67;1.00;;;;;;;;;;7333478;19;162388;-14
2022/02/01 18:09:22;;;;;;;1.35;0.93;;;;;;;;;;7333670;19;153982;-14
2022/02/01 18:11:59;;;;;;;1.25;1.00;;;;;;;;;;7333632;19;153546;-14
2022/02/01 18:17:20;;;;;;;1.27;0.90;;;;;;;;;;7330910;19;162553;-14
2022/02/01 18:19:53;;;;;;;1.27;0.90;;;;;;;;;;7333278;19;153779;-14
2022/02/01 18:22:26;;;;;;;0.80;0.80;;;;;;;;;;7333503;19;153523;-14
2022/02/01 18:25:01;;;;;;;1.02;0.93;;;;;;;;;;7332920;19;161787;-14
2022/02/01 18:27:33;;;;;;;1.30;1.00;;;;;;;;;;7331724;19;162321;-14
2022/02/01 18:30:17;;;;;;;0.90;0.70;;;;;;;;;;7332995;19;154204;-15
2022/02/01 18:32:49;;;;;;;1.60;1.00;;;;;;;;;;7332974;19;153514;-14
2022/02/01 18:35:27;;;;;;;1.03;0.80;;;;;;;;;;7332565;19;161875;-15
2022/02/01 18:38:06;;;;;;;1.67;0.93;;;;;;;;;;7330179;19;162515;-16
2022/02/01 18:40:46;;;;;;;1.10;0.80;;;;;;;;;;7332125;19;154106;-15
2022/02/01 18:43:23;;;;;;;1.17;1.10;;;;;;;;;;7332593;19;153525;-15
2022/02/01 18:46:01;;;;;;;1.83;1.00;;;;;;;;;;7332196;19;161927;-15
2022/02/01 18:48:35;;;;;;;1.35;1.08;;;;;;;;;;7332404;19;162524;-17
2022/02/01 18:51:15;;;;;;;1.63;1.05;;;;;;;;;;7332517;19;154259;-16
2022/02/01 18:53:59;;;;;;;1.15;1.05;;;;;;;;;;7332157;19;153476;-15
2022/02/01 18:56:57;;;;;;;1.27;1.00;;;;;;;;;;7331242;19;162055;-14
2022/02/01 18:59:39;;;;;;;1.63;0.90;;;;;;;;;;7331451;19;162573;-15
2022/02/01 19:05:25;;;;;;;0.85;0.75;;;;;;;;;;7331563;19;153806;-15
2022/02/01 19:08:13;;;;;;;0.60;0.60;;;;;;;;;;7329655;19;162446;-14
2022/02/01 19:13:26;;;;;;;1.48;0.93;;;;;;;;;;7331622;19;154095;-14
2022/02/01 19:15:59;;;;;;;0.75;0.75;;;;;;;;;;7329118;19;153602;-15
2022/02/01 19:18:32;;;;;;;1.02;0.90;;;;;;;;;;7327688;19;161801;-14
2022/02/01 19:21:04;;;;;;;2.40;0.90;;;;;;;;;;7331040;19;162331;-15
2022/02/01 19:23:36;;;;;;;1.88;1.00;;;;;;;;;;7330182;19;154124;-15
2022/02/01 19:26:07;;;;;;;0.98;0.80;;;;;;;;;;7331471;19;153476;-15
2022/02/01 19:28:41;;;;;;;1.25;0.85;;;;;;;;;;7330818;19;161887;-16
2022/02/01 19:31:13;;;;;;;2.15;0.80;;;;;;;;;;7330012;19;162343;-16
2022/02/01 19:33:51;;;;;;;1.40;0.90;;;;;;;;;;7330918;19;154021;-15
2022/02/01 19:36:25;;;;;;;2.92;1.80;;;;;;;;;;7330587;19;153840;-15
2022/02/01 19:38:58;;;;;;;2.80;1.65;;;;;;;;;;7327370;19;161825;-16
2022/02/01 19:41:29;;;;;;;7.80;2.40;;;;;;;;;;7328628;19;162780;-15
2022/02/01 19:44:06;;;;;;;2.65;2.10;;;;;;;;;;7330557;19;153954;-15
2022/02/01 19:46:39;;;;;;;3.35;2.65;;;;;;;;;;7330667;19;153659;-15
2022/02/01 19:49:11;;;;;;;4.40;2.33;;;;;;;;;;7329897;19;161894;-13
2022/02/01 19:51:44;;;;;;;3.05;2.22;;;;;;;;;;7330062;19;162303;-15
2022/02/01 19:54:15;;;;;;;4.80;2.90;;;;;;;;;;7330621;19;153976;-15
2022/02/01 19:56:49;;;;;;;8.55;3.00;;;;;;;;;;7330300;19;153524;-18
2022/02/01 19:59:32;;;;;;;3.78;2.83;;;;;;;;;;7329671;19;161761;-15
2022/02/01 20:02:05;;;;;;;7.63;3.67;;;;;;;;;;7329642;19;162397;-17
2022/02/01 20:04:39;;;;;;;5.70;3.17;;;;;;;;;;7330199;19;154032;-15
2022/02/01 20:07:18;;;;;;;6.28;3.50;;;;;;;;;;7329736;19;153559;-16
2022/02/01 20:10:06;;;;;;;6.18;3.13;;;;;;;;;;7329464;19;161834;-16
2022/02/01 20:12:39;;;;;;;10.40;3.90;;;;;;;;;;7327995;19;162467;-15
2022/02/01 20:15:20;;;;;;;8.20;3.80;;;;;;;;;;7329676;19;153741;-15
2022/02/01 20:17:53;;;;;;;6.63;4.05;;;;;;;;;;7327766;19;153514;-16
2022/02/01 20:20:26;;;;;;;11.57;5.05;;;;;;;;;;7329584;19;161857;-18
2022/02/01 20:23:00;;;;;;;15.50;5.28;;;;;;;;;;7329610;19;162399;-16
2022/02/01 20:25:33;;;;;;;13.27;5.78;;;;;;;;;;7329361;19;154365;-17
2022/02/01 20:28:06;;;;;;;12.27;5.55;;;;;;;;;;7328501;19;153642;-15
2022/02/01 20:30:42;;;;;;;12.38;5.07;;;;;;;;;;7329383;19;161898;-16
2022/02/01 20:33:15;;;;;;;9.15;4.47;;;;;;;;;;7328997;19;162624;-15
2022/02/01 20:35:48;;;;;;;12.85;4.15;;;;;;;;;;7333645;19;154026;-13
2022/02/01 20:38:23;;;;;;;10.25;3.83;;;;;;;;;;7327928;19;153571;-15
2022/02/01 20:40:56;;;;;;;8.52;3.38;;;;;;;;;;7326637;19;161893;-14
2022/02/01 20:43:28;;;;;;;12.70;4.00;;;;;;;;;;7331653;19;162350;-15
2022/02/01 20:46:02;;;;;;;9.32;3.80;;;;;;;;;;7332891;19;153979;-14
2022/02/01 20:48:33;;;;;;;8.52;4.00;;;;;;;;;;7328948;19;153639;-15
2022/02/01 20:51:06;;;;;;;9.10;3.70;;;;;;;;;;7328499;19;161873;-14
2022/02/01 20:53:37;;;;;;;7.68;3.70;;;;;;;;;;7329886;19;162275;-14
2022/02/01 20:56:11;;;;;;;7.25;3.90;;;;;;;;;;7330992;19;154198;-15
2022/02/01 20:58:51;;;;;;;;;;;;;;;;;;7330894;19;153512;-15
2022/02/01 21:01:27;;;;;;;8.30;3.30;;;;;;;;;;7331489;19;162163;-15
2022/02/01 21:03:59;;;;;;;16.15;9.45;;;;;;;;;;7328865;19;162675;-14
2022/02/01 21:06:30;;;;;;;9.75;5.60;;;;;;;;;;7332051;19;154012;-15
2022/02/01 21:09:02;;;;;;;12.82;5.13;;;;;;;;;;7329930;19;154137;-14
2022/02/01 21:11:51;;;;;;;10.65;5.40;;;;;;;;;;7328281;19;162285;-15
2022/02/01 21:14:27;;;;;;;8.23;4.93;;;;;;;;;;7330007;19;162491;-14
2022/02/01 21:17:07;;;;;;;7.20;4.97;;;;;;;;;;7328446;19;153984;-15
2022/02/01 21:19:40;;;;;;;10.23;5.00;;;;;;;;;;7329860;19;153514;-15
2022/02/01 21:22:11;;;;;;;7.72;4.32;;;;;;;;;;7327489;19;162072;-16
2022/02/01 21:24:43;;;;;;;7.03;4.78;;;;;;;;;;7327739;19;162568;-15
2022/02/01 21:27:14;;;;;;;8.48;4.53;;;;;;;;;;7328107;19;154653;-14
2022/02/01 21:29:45;;;;;;;7.45;4.72;;;;;;;;;;7328705;19;153476;-15
2022/02/01 21:32:19;;;;;;;8.80;5.47;;;;;;;;;;7327344;19;162122;-15
2022/02/01 21:34:50;;;;;;;8.65;5.65;;;;;;;;;;7326788;19;162589;-15
2022/02/01 21:37:22;;;;;;;12.73;5.88;;;;;;;;;;7327733;19;154105;-14
2022/02/01 21:39:55;;;;;;;10.15;5.93;;;;;;;;;;7331600;19;154205;-14
2022/02/01 21:42:29;;;;;;;10.98;5.10;;;;;;;;;;7332567;19;161903;-14
2022/02/01 21:45:00;;;;;;;11.93;5.70;;;;;;;;;;7333789;19;162514;-14
2022/02/01 21:47:35;;;;;;;9.63;5.00;;;;;;;;;;7332960;19;154048;-14
2022/02/01 21:50:07;;;;;;;8.13;5.72;;;;;;;;;;7333883;19;153537;-14
2022/02/01 21:52:39;;;;;;;12.40;6.65;;;;;;;;;;7333599;19;161841;-14
2022/02/01 21:55:12;;;;;;;12.57;6.85;;;;;;;;;;7334477;19;162353;-14
2022/02/01 21:57:44;;;;;;;11.65;5.47;;;;;;;;;;7337594;19;154223;-14
2022/02/01 22:00:19;;;;;;;15.75;5.50;;;;;;;;;;7331691;19;153588;-14
2022/02/01 22:02:55;;;;;;;12.40;5.63;;;;;;;;;;7333297;19;161923;-14
2022/02/01 22:05:27;;;;;;;8.75;5.57;;;;;;;;;;7333482;19;162458;-14
2022/02/01 22:08:00;;;;;;;12.95;5.53;;;;;;;;;;7333762;19;154008;-14
2022/02/01 22:10:32;;;;;;;9.35;5.28;;;;;;;;;;7334018;19;153942;-15
2022/02/01 22:13:03;;;;;;;8.48;4.53;;;;;;;;;;7335793;19;161771;-14
2022/02/01 22:15:34;;;;;;;8.07;4.80;;;;;;;;;;7334984;19;162372;-14
2022/02/01 22:18:08;;;;;;;8.45;4.20;;;;;;;;;;7336818;19;154021;-14
2022/02/01 22:20:45;;;;;;;8.60;4.35;;;;;;;;;;7334109;19;153774;-12
2022/02/01 22:23:17;;;;;;;8.23;4.77;;;;;;;;;;7336157;19;161833;-15
2022/02/01 22:25:51;;;;;;;8.30;4.60;;;;;;;;;;7335289;19;162329;-13
2022/02/01 22:28:23;;;;;;;6.13;4.30;;;;;;;;;;7334947;19;153939;-14
2022/02/01 22:30:55;;;;;;;8.15;4.50;;;;;;;;;;7335880;19;153649;-13
2022/02/01 22:33:31;;;;;;;5.60;4.05;;;;;;;;;;7335468;19;161838;-13
2022/02/01 22:36:02;;;;;;;7.18;4.18;;;;;;;;;;7335627;19;162595;-15
2022/02/01 22:38:34;;;;;;;7.15;4.10;;;;;;;;;;7335714;19;153980;-16
2022/02/01 22:41:08;;;;;;;6.57;4.50;;;;;;;;;;7332904;19;154131;-13
2022/02/01 22:43:41;;;;;;;6.63;4.25;;;;;;;;;;7334982;19;161815;-13
2022/02/01 22:46:15;;;;;;;6.05;3.70;;;;;;;;;;7335591;19;162486;-13
2022/02/01 22:48:49;;;;;;;6.30;3.95;;;;;;;;;;7336190;19;153568;-14
2022/02/01 22:51:23;;;;;;;7.32;4.07;;;;;;;;;;7335164;19;153623;-14
2022/02/01 22:53:54;;;;;;;6.07;4.03;;;;;;;;;;7334424;19;161735;-14
2022/02/01 22:56:26;;;;;;;6.60;3.78;;;;;;;;;;7333969;19;162496;-13
2022/02/01 22:58:57;;;;;;;7.93;4.28;;;;;;;;;;7335590;19;153962;-14
2022/02/01 23:01:31;;;;;;;13.15;4.47;;;;;;;;;;7332097;19;153571;-15
2022/02/01 23:04:08;;;;;;;6.20;3.78;;;;;;;;;;7331371;19;161959;-14
2022/02/01 23:07:05;;;;;;;10.75;4.07;;;;;;;;;;7331220;19;162665;-15
2022/02/01 23:09:56;;;;;;;7.30;4.53;;;;;;;;;;7331707;19;154188;-14
2022/02/01 23:15:29;;;;;;;6.30;4.03;;;;;;;;;;7331312;19;162047;-13
2022/02/01 23:17:58;;;;;;;4.75;3.42;;;;;;;;;;7330880;19;162518;-14
2022/02/01 23:20:32;;;;;;;7.00;3.30;;;;;;;;;;7329300;19;153962;-14
2022/02/01 23:23:03;;;;;;;5.75;3.30;;;;;;;;;;7334624;19;153496;-14
2022/02/01 23:25:37;;;;;;;5.15;3.42;;;;;;;;;;7330350;19;162020;-13
2022/02/01 23:28:10;;;;;;;6.93;3.80;;;;;;;;;;7332313;19;162418;-14
2022/02/01 23:30:44;;;;;;;7.70;4.22;;;;;;;;;;7330806;19;154159;-14
2022/02/01 23:33:22;;;;;;;5.47;3.70;;;;;;;;;;7330733;19;153482;-14
2022/02/01 23:36:11;;;;;;;6.50;3.40;;;;;;;;;;7330439;19;161762;-14
2022/02/01 23:39:11;;;;;;;7.57;3.60;;;;;;;;;;7330187;19;162327;-13
2022/02/01 23:44:35;;;;;;;5.50;3.72;;;;;;;;;;7329444;19;153630;-14
2022/02/01 23:50:05;;;;;;;4.28;3.25;;;;;;;;;;7326782;19;162419;-13
2022/02/01 23:52:40;;;;;;;3.83;3.43;;;;;;;;;;7329799;19;154225;-14
2022/02/01 23:55:12;;;;;;;4.68;3.40;;;;;;;;;;7330804;19;153508;-14
2022/02/01 23:57:49;;;;;;;5.83;3.57;;;;;;;;;;7332728;19;162011;-13
